Linden, New Jersey
Current Conditions -  °F | °C
As of 8:35 AM on Thursday 27 Nov 2014 (Local Time) from KLDJ Reporting Station
Overcast Overcast  
Wind Chill: 37°   Ceiling: 5000
Heat Index: 40°   Visibility: 10mi
Dew Point: 35°   Wind: 5mph
Humidity: 82%   Direction: 310°NW
Pressure: 30.02"   Gusts: NA
Location:  40.63°N, 74.25°W
Report Text: KLDJ 271335Z AUTO 31004KT 10SM SCT044 OVC050 05/02 A3002 RMK AO2 T00450016
Loading
Personal Weather Stations






























Interactive Weather Map New forecast layout! Learn more

10-Day Weather Forecast

Advertisements
Track Severe Weather on mobile